sensor_id;sensor_type;location;lat;lon;timestamp;P1;durP1;ratioP1;P2;durP2;ratioP2
22254;SDS011;11296;42.684;23.322;2022-07-23T00:00:32;13.63;;;8.43;;
22254;SDS011;11296;42.684;23.322;2022-07-23T00:02:58;10.70;;;8.03;;
22254;SDS011;11296;42.684;23.322;2022-07-23T00:05:24;9.57;;;8.10;;
22254;SDS011;11296;42.684;23.322;2022-07-23T00:07:50;10.57;;;7.90;;
22254;SDS011;11296;42.684;23.322;2022-07-23T00:10:15;13.60;;;8.10;;
22254;SDS011;11296;42.684;23.322;2022-07-23T00:12:41;12.83;;;7.57;;
22254;SDS011;11296;42.684;23.322;2022-07-23T00:15:07;12.67;;;7.90;;
22254;SDS011;11296;42.684;23.322;2022-07-23T00:17:34;10.40;;;7.80;;
22254;SDS011;11296;42.684;23.322;2022-07-23T00:19:59;10.87;;;8.50;;
22254;SDS011;11296;42.684;23.322;2022-07-23T00:22:26;12.37;;;8.27;;
22254;SDS011;11296;42.684;23.322;2022-07-23T00:24:52;13.87;;;8.30;;
22254;SDS011;11296;42.684;23.322;2022-07-23T00:27:18;11.73;;;8.20;;
22254;SDS011;11296;42.684;23.322;2022-07-23T00:29:44;11.07;;;8.20;;
22254;SDS011;11296;42.684;23.322;2022-07-23T00:32:10;10.93;;;8.20;;
22254;SDS011;11296;42.684;23.322;2022-07-23T00:34:38;11.17;;;8.27;;
22254;SDS011;11296;42.684;23.322;2022-07-23T00:37:03;14.40;;;8.80;;
22254;SDS011;11296;42.684;23.322;2022-07-23T00:39:29;10.10;;;7.67;;
22254;SDS011;11296;42.684;23.322;2022-07-23T00:41:55;12.27;;;8.40;;
22254;SDS011;11296;42.684;23.322;2022-07-23T00:44:25;11.30;;;8.50;;
22254;SDS011;11296;42.684;23.322;2022-07-23T00:46:53;10.37;;;7.93;;
22254;SDS011;11296;42.684;23.322;2022-07-23T00:49:20;10.10;;;9.07;;
22254;SDS011;11296;42.684;23.322;2022-07-23T00:51:47;12.20;;;9.07;;
22254;SDS011;11296;42.684;23.322;2022-07-23T00:54:14;11.60;;;9.27;;
22254;SDS011;11296;42.684;23.322;2022-07-23T00:56:41;13.73;;;9.40;;
22254;SDS011;11296;42.684;23.322;2022-07-23T00:59:09;12.63;;;9.10;;
22254;SDS011;11296;42.684;23.322;2022-07-23T01:01:35;16.93;;;9.57;;
22254;SDS011;11296;42.684;23.322;2022-07-23T01:04:01;12.40;;;8.70;;
22254;SDS011;11296;42.684;23.322;2022-07-23T01:06:27;14.87;;;8.60;;
22254;SDS011;11296;42.684;23.322;2022-07-23T01:08:56;11.37;;;8.23;;
22254;SDS011;11296;42.684;23.322;2022-07-23T01:11:22;12.17;;;7.87;;
22254;SDS011;11296;42.684;23.322;2022-07-23T01:13:48;10.40;;;7.60;;
22254;SDS011;11296;42.684;23.322;2022-07-23T01:16:14;9.60;;;7.63;;
22254;SDS011;11296;42.684;23.322;2022-07-23T01:18:40;10.90;;;7.13;;
22254;SDS011;11296;42.684;23.322;2022-07-23T01:21:05;10.90;;;7.17;;
22254;SDS011;11296;42.684;23.322;2022-07-23T01:23:31;9.63;;;7.30;;
22254;SDS011;11296;42.684;23.322;2022-07-23T01:25:58;9.23;;;7.20;;
22254;SDS011;11296;42.684;23.322;2022-07-23T01:28:25;11.17;;;7.40;;
22254;SDS011;11296;42.684;23.322;2022-07-23T01:30:52;9.80;;;7.13;;
22254;SDS011;11296;42.684;23.322;2022-07-23T01:33:18;9.33;;;7.50;;
22254;SDS011;11296;42.684;23.322;2022-07-23T01:35:44;9.33;;;7.30;;
22254;SDS011;11296;42.684;23.322;2022-07-23T01:38:16;11.17;;;7.50;;
22254;SDS011;11296;42.684;23.322;2022-07-23T01:40:43;8.13;;;7.27;;
22254;SDS011;11296;42.684;23.322;2022-07-23T01:43:09;9.20;;;6.97;;
22254;SDS011;11296;42.684;23.322;2022-07-23T01:45:36;10.10;;;7.17;;
22254;SDS011;11296;42.684;23.322;2022-07-23T01:48:02;8.87;;;7.37;;
22254;SDS011;11296;42.684;23.322;2022-07-23T01:50:29;10.23;;;7.90;;
22254;SDS011;11296;42.684;23.322;2022-07-23T01:53:08;10.10;;;7.43;;
22254;SDS011;11296;42.684;23.322;2022-07-23T01:55:35;12.73;;;8.13;;
22254;SDS011;11296;42.684;23.322;2022-07-23T01:58:02;13.23;;;10.10;;
22254;SDS011;11296;42.684;23.322;2022-07-23T02:00:28;11.40;;;9.10;;
22254;SDS011;11296;42.684;23.322;2022-07-23T02:02:54;14.30;;;8.07;;
22254;SDS011;11296;42.684;23.322;2022-07-23T02:05:21;9.43;;;7.50;;
22254;SDS011;11296;42.684;23.322;2022-07-23T02:07:46;10.40;;;7.70;;
22254;SDS011;11296;42.684;23.322;2022-07-23T02:10:12;14.20;;;8.00;;
22254;SDS011;11296;42.684;23.322;2022-07-23T02:12:38;9.17;;;7.37;;
22254;SDS011;11296;42.684;23.322;2022-07-23T02:15:03;10.47;;;7.90;;
22254;SDS011;11296;42.684;23.322;2022-07-23T02:17:29;11.50;;;7.97;;
22254;SDS011;11296;42.684;23.322;2022-07-23T02:19:55;8.90;;;7.77;;
22254;SDS011;11296;42.684;23.322;2022-07-23T02:22:21;10.93;;;8.10;;
22254;SDS011;11296;42.684;23.322;2022-07-23T02:24:48;10.90;;;7.70;;
22254;SDS011;11296;42.684;23.322;2022-07-23T02:27:13;11.70;;;7.93;;
22254;SDS011;11296;42.684;23.322;2022-07-23T02:29:39;9.73;;;7.37;;
22254;SDS011;11296;42.684;23.322;2022-07-23T02:32:05;11.60;;;8.23;;
22254;SDS011;11296;42.684;23.322;2022-07-23T02:34:31;12.27;;;8.27;;
22254;SDS011;11296;42.684;23.322;2022-07-23T02:36:57;12.20;;;8.33;;
22254;SDS011;11296;42.684;23.322;2022-07-23T02:39:23;10.83;;;8.13;;
22254;SDS011;11296;42.684;23.322;2022-07-23T02:41:49;11.13;;;8.23;;
22254;SDS011;11296;42.684;23.322;2022-07-23T02:44:15;9.23;;;8.17;;
22254;SDS011;11296;42.684;23.322;2022-07-23T02:46:44;8.50;;;7.57;;
22254;SDS011;11296;42.684;23.322;2022-07-23T02:49:09;9.47;;;7.93;;
22254;SDS011;11296;42.684;23.322;2022-07-23T02:51:35;11.00;;;7.53;;
22254;SDS011;11296;42.684;23.322;2022-07-23T02:54:13;9.67;;;7.47;;
22254;SDS011;11296;42.684;23.322;2022-07-23T02:56:42;10.13;;;8.03;;
22254;SDS011;11296;42.684;23.322;2022-07-23T02:59:14;10.70;;;8.07;;
22254;SDS011;11296;42.684;23.322;2022-07-23T03:01:50;10.33;;;8.00;;
22254;SDS011;11296;42.684;23.322;2022-07-23T03:04:22;11.00;;;8.90;;
22254;SDS011;11296;42.684;23.322;2022-07-23T03:07:01;13.13;;;8.77;;
22254;SDS011;11296;42.684;23.322;2022-07-23T03:09:27;11.20;;;9.07;;
22254;SDS011;11296;42.684;23.322;2022-07-23T03:11:52;11.67;;;9.03;;
22254;SDS011;11296;42.684;23.322;2022-07-23T03:14:19;10.93;;;9.27;;
22254;SDS011;11296;42.684;23.322;2022-07-23T03:16:44;15.13;;;10.10;;
22254;SDS011;11296;42.684;23.322;2022-07-23T03:19:10;15.00;;;10.23;;
22254;SDS011;11296;42.684;23.322;2022-07-23T03:21:36;15.73;;;10.00;;
22254;SDS011;11296;42.684;23.322;2022-07-23T03:24:07;11.83;;;9.90;;
22254;SDS011;11296;42.684;23.322;2022-07-23T03:26:34;14.50;;;9.97;;
22254;SDS011;11296;42.684;23.322;2022-07-23T03:29:00;14.07;;;10.17;;
22254;SDS011;11296;42.684;23.322;2022-07-23T03:31:27;12.17;;;10.00;;
22254;SDS011;11296;42.684;23.322;2022-07-23T03:33:53;14.87;;;10.30;;
22254;SDS011;11296;42.684;23.322;2022-07-23T03:36:19;16.93;;;10.07;;
22254;SDS011;11296;42.684;23.322;2022-07-23T03:38:45;16.27;;;10.37;;
22254;SDS011;11296;42.684;23.322;2022-07-23T03:41:11;13.23;;;9.87;;
22254;SDS011;11296;42.684;23.322;2022-07-23T03:43:36;15.03;;;10.00;;
22254;SDS011;11296;42.684;23.322;2022-07-23T03:46:02;14.77;;;10.30;;
22254;SDS011;11296;42.684;23.322;2022-07-23T03:48:29;14.77;;;10.00;;
22254;SDS011;11296;42.684;23.322;2022-07-23T03:50:54;15.57;;;9.90;;
22254;SDS011;11296;42.684;23.322;2022-07-23T03:53:20;12.70;;;10.07;;
22254;SDS011;11296;42.684;23.322;2022-07-23T03:55:46;17.07;;;9.80;;
22254;SDS011;11296;42.684;23.322;2022-07-23T03:58:12;15.57;;;9.83;;
22254;SDS011;11296;42.684;23.322;2022-07-23T04:00:37;16.80;;;10.73;;
22254;SDS011;11296;42.684;23.322;2022-07-23T04:03:04;16.20;;;10.43;;
22254;SDS011;11296;42.684;23.322;2022-07-23T04:05:29;15.83;;;10.50;;
22254;SDS011;11296;42.684;23.322;2022-07-23T04:08:04;17.07;;;10.47;;
22254;SDS011;11296;42.684;23.322;2022-07-23T04:10:31;17.70;;;10.80;;
22254;SDS011;11296;42.684;23.322;2022-07-23T04:12:56;15.27;;;10.83;;
22254;SDS011;11296;42.684;23.322;2022-07-23T04:15:22;14.10;;;10.23;;
22254;SDS011;11296;42.684;23.322;2022-07-23T04:17:48;13.73;;;10.50;;
22254;SDS011;11296;42.684;23.322;2022-07-23T04:20:16;15.00;;;10.90;;
22254;SDS011;11296;42.684;23.322;2022-07-23T04:22:51;15.07;;;10.33;;
22254;SDS011;11296;42.684;23.322;2022-07-23T04:25:17;12.10;;;10.07;;
22254;SDS011;11296;42.684;23.322;2022-07-23T04:27:43;13.10;;;9.83;;
22254;SDS011;11296;42.684;23.322;2022-07-23T04:30:14;13.07;;;9.50;;
22254;SDS011;11296;42.684;23.322;2022-07-23T04:32:40;9.93;;;8.90;;
22254;SDS011;11296;42.684;23.322;2022-07-23T04:35:13;11.77;;;9.50;;
22254;SDS011;11296;42.684;23.322;2022-07-23T04:37:41;10.60;;;9.50;;
22254;SDS011;11296;42.684;23.322;2022-07-23T04:40:07;12.87;;;9.23;;
22254;SDS011;11296;42.684;23.322;2022-07-23T04:42:35;12.33;;;9.63;;
22254;SDS011;11296;42.684;23.322;2022-07-23T04:45:00;11.40;;;9.27;;
22254;SDS011;11296;42.684;23.322;2022-07-23T04:47:26;11.77;;;9.43;;
22254;SDS011;11296;42.684;23.322;2022-07-23T04:49:52;12.13;;;8.70;;
22254;SDS011;11296;42.684;23.322;2022-07-23T04:52:18;12.83;;;9.63;;
22254;SDS011;11296;42.684;23.322;2022-07-23T04:54:44;13.00;;;9.07;;
22254;SDS011;11296;42.684;23.322;2022-07-23T04:57:20;10.80;;;9.23;;
22254;SDS011;11296;42.684;23.322;2022-07-23T04:59:48;13.43;;;9.40;;
22254;SDS011;11296;42.684;23.322;2022-07-23T05:02:17;11.33;;;10.00;;
22254;SDS011;11296;42.684;23.322;2022-07-23T05:04:43;16.03;;;9.70;;
22254;SDS011;11296;42.684;23.322;2022-07-23T05:07:10;11.57;;;9.30;;
22254;SDS011;11296;42.684;23.322;2022-07-23T05:09:36;11.47;;;9.27;;
22254;SDS011;11296;42.684;23.322;2022-07-23T05:12:02;11.60;;;9.53;;
22254;SDS011;11296;42.684;23.322;2022-07-23T05:14:30;11.23;;;9.33;;
22254;SDS011;11296;42.684;23.322;2022-07-23T05:16:55;12.43;;;10.30;;
22254;SDS011;11296;42.684;23.322;2022-07-23T05:19:22;10.83;;;9.60;;
22254;SDS011;11296;42.684;23.322;2022-07-23T05:21:48;12.30;;;9.87;;
22254;SDS011;11296;42.684;23.322;2022-07-23T05:24:14;13.17;;;10.33;;
22254;SDS011;11296;42.684;23.322;2022-07-23T05:26:40;14.37;;;10.20;;
22254;SDS011;11296;42.684;23.322;2022-07-23T05:29:06;13.63;;;10.90;;
22254;SDS011;11296;42.684;23.322;2022-07-23T05:31:31;12.60;;;10.10;;
22254;SDS011;11296;42.684;23.322;2022-07-23T05:33:57;15.17;;;10.20;;
22254;SDS011;11296;42.684;23.322;2022-07-23T05:36:23;12.27;;;10.33;;
22254;SDS011;11296;42.684;23.322;2022-07-23T05:38:54;12.10;;;9.37;;
22254;SDS011;11296;42.684;23.322;2022-07-23T05:41:20;17.50;;;10.10;;
22254;SDS011;11296;42.684;23.322;2022-07-23T05:43:46;13.57;;;9.50;;
22254;SDS011;11296;42.684;23.322;2022-07-23T05:46:13;11.30;;;9.70;;
22254;SDS011;11296;42.684;23.322;2022-07-23T05:48:41;13.97;;;10.37;;
22254;SDS011;11296;42.684;23.322;2022-07-23T05:51:37;11.73;;;9.53;;
22254;SDS011;11296;42.684;23.322;2022-07-23T05:54:02;11.80;;;9.37;;
22254;SDS011;11296;42.684;23.322;2022-07-23T05:56:32;17.87;;;13.30;;
22254;SDS011;11296;42.684;23.322;2022-07-23T05:58:59;13.53;;;9.80;;
22254;SDS011;11296;42.684;23.322;2022-07-23T06:01:26;10.47;;;9.27;;
22254;SDS011;11296;42.684;23.322;2022-07-23T06:06:54;16.00;;;10.17;;
22254;SDS011;11296;42.684;23.322;2022-07-23T06:09:20;12.60;;;9.87;;
22254;SDS011;11296;42.684;23.322;2022-07-23T06:11:46;15.27;;;10.00;;
22254;SDS011;11296;42.684;23.322;2022-07-23T06:14:17;15.80;;;10.80;;
22254;SDS011;11296;42.684;23.322;2022-07-23T06:16:50;15.17;;;10.20;;
22254;SDS011;11296;42.684;23.322;2022-07-23T06:19:17;14.67;;;10.43;;
22254;SDS011;11296;42.684;23.322;2022-07-23T06:21:45;12.00;;;9.97;;
22254;SDS011;11296;42.684;23.322;2022-07-23T06:24:10;12.70;;;10.23;;
22254;SDS011;11296;42.684;23.322;2022-07-23T06:26:37;13.47;;;10.17;;
22254;SDS011;11296;42.684;23.322;2022-07-23T06:29:03;12.20;;;9.63;;
22254;SDS011;11296;42.684;23.322;2022-07-23T06:31:29;11.80;;;9.97;;
22254;SDS011;11296;42.684;23.322;2022-07-23T06:33:55;14.47;;;8.87;;
22254;SDS011;11296;42.684;23.322;2022-07-23T06:36:20;11.38;;;9.18;;
22254;SDS011;11296;42.684;23.322;2022-07-23T06:38:46;12.40;;;8.63;;
22254;SDS011;11296;42.684;23.322;2022-07-23T06:41:12;12.00;;;8.77;;
22254;SDS011;11296;42.684;23.322;2022-07-23T06:43:38;13.30;;;9.02;;
22254;SDS011;11296;42.684;23.322;2022-07-23T06:46:06;13.50;;;9.80;;
22254;SDS011;11296;42.684;23.322;2022-07-23T06:48:33;10.57;;;8.82;;
22254;SDS011;11296;42.684;23.322;2022-07-23T06:51:02;12.38;;;8.52;;
22254;SDS011;11296;42.684;23.322;2022-07-23T06:53:28;14.13;;;9.60;;
22254;SDS011;11296;42.684;23.322;2022-07-23T06:55:54;10.70;;;8.38;;
22254;SDS011;11296;42.684;23.322;2022-07-23T06:58:20;13.93;;;9.55;;
22254;SDS011;11296;42.684;23.322;2022-07-23T07:01:05;13.23;;;9.00;;
22254;SDS011;11296;42.684;23.322;2022-07-23T07:03:41;12.55;;;8.95;;
22254;SDS011;11296;42.684;23.322;2022-07-23T07:06:07;11.80;;;8.50;;
22254;SDS011;11296;42.684;23.322;2022-07-23T07:08:33;9.82;;;7.90;;
22254;SDS011;11296;42.684;23.322;2022-07-23T07:10:59;12.00;;;8.70;;
22254;SDS011;11296;42.684;23.322;2022-07-23T07:13:25;9.60;;;8.00;;
22254;SDS011;11296;42.684;23.322;2022-07-23T07:15:52;11.10;;;8.85;;
22254;SDS011;11296;42.684;23.322;2022-07-23T07:18:17;11.80;;;8.70;;
22254;SDS011;11296;42.684;23.322;2022-07-23T07:20:49;11.52;;;8.20;;
22254;SDS011;11296;42.684;23.322;2022-07-23T07:23:15;13.27;;;8.60;;
22254;SDS011;11296;42.684;23.322;2022-07-23T07:25:41;12.82;;;8.05;;
22254;SDS011;11296;42.684;23.322;2022-07-23T07:28:07;12.40;;;8.20;;
22254;SDS011;11296;42.684;23.322;2022-07-23T07:30:33;11.32;;;8.77;;
22254;SDS011;11296;42.684;23.322;2022-07-23T07:32:59;11.98;;;8.20;;
22254;SDS011;11296;42.684;23.322;2022-07-23T07:35:29;11.85;;;8.32;;
22254;SDS011;11296;42.684;23.322;2022-07-23T07:38:00;10.52;;;8.48;;
22254;SDS011;11296;42.684;23.322;2022-07-23T07:40:27;10.07;;;7.70;;
22254;SDS011;11296;42.684;23.322;2022-07-23T07:42:54;10.25;;;8.40;;
22254;SDS011;11296;42.684;23.322;2022-07-23T07:47:56;9.27;;;7.85;;
22254;SDS011;11296;42.684;23.322;2022-07-23T07:50:22;10.93;;;8.20;;
22254;SDS011;11296;42.684;23.322;2022-07-23T07:52:52;9.88;;;8.25;;
22254;SDS011;11296;42.684;23.322;2022-07-23T07:58:50;11.95;;;8.60;;
22254;SDS011;11296;42.684;23.322;2022-07-23T08:01:16;10.07;;;8.48;;
22254;SDS011;11296;42.684;23.322;2022-07-23T08:03:51;11.38;;;8.23;;
22254;SDS011;11296;42.684;23.322;2022-07-23T08:06:24;9.30;;;8.30;;
22254;SDS011;11296;42.684;23.322;2022-07-23T08:08:50;13.07;;;8.95;;
22254;SDS011;11296;42.684;23.322;2022-07-23T08:11:17;12.70;;;8.95;;
22254;SDS011;11296;42.684;23.322;2022-07-23T08:13:42;10.55;;;8.73;;
22254;SDS011;11296;42.684;23.322;2022-07-23T08:16:10;11.63;;;8.88;;
22254;SDS011;11296;42.684;23.322;2022-07-23T08:18:36;11.60;;;8.65;;
22254;SDS011;11296;42.684;23.322;2022-07-23T08:21:02;13.32;;;8.48;;
22254;SDS011;11296;42.684;23.322;2022-07-23T08:23:30;13.80;;;8.88;;
22254;SDS011;11296;42.684;23.322;2022-07-23T08:25:59;13.32;;;9.50;;
22254;SDS011;11296;42.684;23.322;2022-07-23T08:28:27;15.38;;;9.60;;
22254;SDS011;11296;42.684;23.322;2022-07-23T08:31:41;15.00;;;9.95;;
22254;SDS011;11296;42.684;23.322;2022-07-23T08:34:07;15.63;;;10.43;;
22254;SDS011;11296;42.684;23.322;2022-07-23T08:36:33;10.20;;;9.00;;
22254;SDS011;11296;42.684;23.322;2022-07-23T08:38:59;11.77;;;9.43;;
22254;SDS011;11296;42.684;23.322;2022-07-23T08:41:29;12.07;;;9.15;;
22254;SDS011;11296;42.684;23.322;2022-07-23T08:43:55;15.40;;;9.20;;
22254;SDS011;11296;42.684;23.322;2022-07-23T08:46:22;13.18;;;9.80;;
22254;SDS011;11296;42.684;23.322;2022-07-23T08:48:49;11.25;;;9.30;;
22254;SDS011;11296;42.684;23.322;2022-07-23T08:51:15;15.48;;;9.55;;
22254;SDS011;11296;42.684;23.322;2022-07-23T08:53:48;12.35;;;9.60;;
22254;SDS011;11296;42.684;23.322;2022-07-23T08:56:14;14.65;;;9.90;;
22254;SDS011;11296;42.684;23.322;2022-07-23T08:58:42;15.60;;;9.30;;
22254;SDS011;11296;42.684;23.322;2022-07-23T09:01:08;11.48;;;9.18;;
22254;SDS011;11296;42.684;23.322;2022-07-23T09:03:35;14.05;;;9.55;;
22254;SDS011;11296;42.684;23.322;2022-07-23T09:06:07;11.73;;;9.80;;
22254;SDS011;11296;42.684;23.322;2022-07-23T09:11:21;15.23;;;9.95;;
22254;SDS011;11296;42.684;23.322;2022-07-23T09:13:51;18.67;;;9.57;;
22254;SDS011;11296;42.684;23.322;2022-07-23T09:16:30;13.15;;;10.02;;
22254;SDS011;11296;42.684;23.322;2022-07-23T09:18:58;14.63;;;9.90;;
22254;SDS011;11296;42.684;23.322;2022-07-23T09:21:30;12.27;;;9.77;;
22254;SDS011;11296;42.684;23.322;2022-07-23T09:24:04;12.55;;;9.32;;
22254;SDS011;11296;42.684;23.322;2022-07-23T09:26:43;11.68;;;9.65;;
22254;SDS011;11296;42.684;23.322;2022-07-23T09:31:48;8.85;;;7.95;;
22254;SDS011;11296;42.684;23.322;2022-07-23T09:37:25;10.25;;;9.20;;
22254;SDS011;11296;42.684;23.322;2022-07-23T09:40:05;11.77;;;9.20;;
22254;SDS011;11296;42.684;23.322;2022-07-23T09:42:59;11.23;;;8.73;;
22254;SDS011;11296;42.684;23.322;2022-07-23T09:45:25;11.60;;;9.20;;
22254;SDS011;11296;42.684;23.322;2022-07-23T09:50:19;10.75;;;8.48;;
22254;SDS011;11296;42.684;23.322;2022-07-23T09:52:46;11.80;;;8.60;;
22254;SDS011;11296;42.684;23.322;2022-07-23T09:55:14;12.15;;;8.80;;
22254;SDS011;11296;42.684;23.322;2022-07-23T09:57:41;10.65;;;8.70;;
22254;SDS011;11296;42.684;23.322;2022-07-23T10:00:12;12.52;;;9.10;;
22254;SDS011;11296;42.684;23.322;2022-07-23T10:02:39;10.27;;;9.15;;
22254;SDS011;11296;42.684;23.322;2022-07-23T10:05:24;13.80;;;10.00;;
22254;SDS011;11296;42.684;23.322;2022-07-23T10:08:11;11.50;;;9.45;;
22254;SDS011;11296;42.684;23.322;2022-07-23T10:10:56;11.65;;;9.65;;
22254;SDS011;11296;42.684;23.322;2022-07-23T10:13:50;12.15;;;8.27;;
22254;SDS011;11296;42.684;23.322;2022-07-23T10:16:51;15.02;;;9.13;;
22254;SDS011;11296;42.684;23.322;2022-07-23T10:19:20;11.20;;;9.65;;
22254;SDS011;11296;42.684;23.322;2022-07-23T10:21:57;12.25;;;9.93;;
22254;SDS011;11296;42.684;23.322;2022-07-23T10:37:44;14.93;;;9.23;;
22254;SDS011;11296;42.684;23.322;2022-07-23T10:40:17;13.00;;;9.00;;
22254;SDS011;11296;42.684;23.322;2022-07-23T10:42:47;15.98;;;9.25;;
22254;SDS011;11296;42.684;23.322;2022-07-23T10:45:22;11.82;;;9.52;;
22254;SDS011;11296;42.684;23.322;2022-07-23T10:48:12;10.25;;;8.88;;
22254;SDS011;11296;42.684;23.322;2022-07-23T10:59:18;11.23;;;8.48;;
22254;SDS011;11296;42.684;23.322;2022-07-23T11:01:46;11.40;;;8.82;;
22254;SDS011;11296;42.684;23.322;2022-07-23T11:04:18;11.98;;;9.95;;
22254;SDS011;11296;42.684;23.322;2022-07-23T11:09:26;12.48;;;7.88;;
22254;SDS011;11296;42.684;23.322;2022-07-23T11:15:13;15.60;;;8.60;;
22254;SDS011;11296;42.684;23.322;2022-07-23T11:20:13;15.70;;;8.93;;
22254;SDS011;11296;42.684;23.322;2022-07-23T11:25:31;15.80;;;8.88;;
22254;SDS011;11296;42.684;23.322;2022-07-23T11:28:16;15.68;;;9.45;;
22254;SDS011;11296;42.684;23.322;2022-07-23T11:30:46;15.75;;;8.85;;
22254;SDS011;11296;42.684;23.322;2022-07-23T11:35:41;13.23;;;8.68;;
22254;SDS011;11296;42.684;23.322;2022-07-23T11:38:17;12.55;;;8.52;;
22254;SDS011;11296;42.684;23.322;2022-07-23T11:41:19;15.43;;;9.23;;
22254;SDS011;11296;42.684;23.322;2022-07-23T11:43:45;16.63;;;9.23;;
22254;SDS011;11296;42.684;23.322;2022-07-23T11:46:11;17.25;;;8.15;;
22254;SDS011;11296;42.684;23.322;2022-07-23T11:48:39;14.07;;;7.88;;
22254;SDS011;11296;42.684;23.322;2022-07-23T11:51:05;15.32;;;8.45;;
22254;SDS011;11296;42.684;23.322;2022-07-23T11:53:32;17.58;;;7.95;;
22254;SDS011;11296;42.684;23.322;2022-07-23T11:56:07;18.05;;;7.82;;
22254;SDS011;11296;42.684;23.322;2022-07-23T11:58:35;16.65;;;7.80;;
22254;SDS011;11296;42.684;23.322;2022-07-23T12:01:01;16.38;;;8.25;;
22254;SDS011;11296;42.684;23.322;2022-07-23T12:03:27;18.67;;;7.85;;
22254;SDS011;11296;42.684;23.322;2022-07-23T12:05:57;15.45;;;8.25;;
22254;SDS011;11296;42.684;23.322;2022-07-23T12:08:25;17.70;;;8.27;;
22254;SDS011;11296;42.684;23.322;2022-07-23T12:10:51;15.57;;;8.23;;
22254;SDS011;11296;42.684;23.322;2022-07-23T12:13:18;13.60;;;8.55;;
22254;SDS011;11296;42.684;23.322;2022-07-23T12:15:53;16.75;;;8.15;;
22254;SDS011;11296;42.684;23.322;2022-07-23T12:18:23;16.13;;;7.88;;
22254;SDS011;11296;42.684;23.322;2022-07-23T12:20:51;16.48;;;8.23;;
22254;SDS011;11296;42.684;23.322;2022-07-23T12:23:19;15.70;;;8.38;;
22254;SDS011;11296;42.684;23.322;2022-07-23T12:25:47;20.75;;;8.77;;
22254;SDS011;11296;42.684;23.322;2022-07-23T12:28:14;16.67;;;8.30;;
22254;SDS011;11296;42.684;23.322;2022-07-23T12:31:02;15.73;;;8.60;;
22254;SDS011;11296;42.684;23.322;2022-07-23T12:33:38;18.17;;;9.27;;
22254;SDS011;11296;42.684;23.322;2022-07-23T12:36:06;14.05;;;8.57;;
22254;SDS011;11296;42.684;23.322;2022-07-23T12:38:43;14.70;;;8.40;;
22254;SDS011;11296;42.684;23.322;2022-07-23T12:41:15;13.80;;;8.77;;
22254;SDS011;11296;42.684;23.322;2022-07-23T12:43:42;13.63;;;8.27;;
22254;SDS011;11296;42.684;23.322;2022-07-23T12:46:16;14.40;;;7.93;;
22254;SDS011;11296;42.684;23.322;2022-07-23T12:49:04;21.90;;;9.35;;
22254;SDS011;11296;42.684;23.322;2022-07-23T12:51:33;13.98;;;8.45;;
22254;SDS011;11296;42.684;23.322;2022-07-23T12:54:06;18.45;;;8.85;;
22254;SDS011;11296;42.684;23.322;2022-07-23T12:56:34;16.33;;;9.00;;
22254;SDS011;11296;42.684;23.322;2022-07-23T12:59:08;15.90;;;8.15;;
22254;SDS011;11296;42.684;23.322;2022-07-23T13:02:00;15.20;;;8.23;;
22254;SDS011;11296;42.684;23.322;2022-07-23T13:04:27;15.73;;;8.57;;
22254;SDS011;11296;42.684;23.322;2022-07-23T13:06:56;17.63;;;8.73;;
22254;SDS011;11296;42.684;23.322;2022-07-23T13:09:26;18.52;;;8.65;;
22254;SDS011;11296;42.684;23.322;2022-07-23T13:11:54;14.55;;;8.02;;
22254;SDS011;11296;42.684;23.322;2022-07-23T13:14:23;16.98;;;8.25;;
22254;SDS011;11296;42.684;23.322;2022-07-23T13:16:50;16.45;;;8.10;;
22254;SDS011;11296;42.684;23.322;2022-07-23T13:19:19;19.08;;;8.57;;
22254;SDS011;11296;42.684;23.322;2022-07-23T13:21:49;16.33;;;7.35;;
22254;SDS011;11296;42.684;23.322;2022-07-23T13:24:15;15.25;;;8.13;;
22254;SDS011;11296;42.684;23.322;2022-07-23T13:26:44;15.50;;;7.47;;
22254;SDS011;11296;42.684;23.322;2022-07-23T13:29:13;14.45;;;7.70;;
22254;SDS011;11296;42.684;23.322;2022-07-23T13:31:44;18.17;;;10.65;;
22254;SDS011;11296;42.684;23.322;2022-07-23T13:34:15;15.48;;;8.95;;
22254;SDS011;11296;42.684;23.322;2022-07-23T13:36:41;14.88;;;8.05;;
22254;SDS011;11296;42.684;23.322;2022-07-23T13:39:09;13.15;;;8.25;;
22254;SDS011;11296;42.684;23.322;2022-07-23T13:41:35;13.70;;;8.25;;
22254;SDS011;11296;42.684;23.322;2022-07-23T13:44:02;11.50;;;7.85;;
22254;SDS011;11296;42.684;23.322;2022-07-23T13:46:31;12.38;;;8.02;;
22254;SDS011;11296;42.684;23.322;2022-07-23T13:49:03;13.85;;;7.57;;
22254;SDS011;11296;42.684;23.322;2022-07-23T13:51:30;13.57;;;8.32;;
22254;SDS011;11296;42.684;23.322;2022-07-23T13:54:02;13.98;;;8.02;;
22254;SDS011;11296;42.684;23.322;2022-07-23T13:56:33;16.52;;;8.88;;
22254;SDS011;11296;42.684;23.322;2022-07-23T13:59:08;15.63;;;8.35;;
22254;SDS011;11296;42.684;23.322;2022-07-23T14:01:37;17.73;;;8.25;;
22254;SDS011;11296;42.684;23.322;2022-07-23T14:04:05;15.60;;;7.75;;
22254;SDS011;11296;42.684;23.322;2022-07-23T14:06:31;11.88;;;8.13;;
22254;SDS011;11296;42.684;23.322;2022-07-23T14:09:01;12.75;;;7.82;;
22254;SDS011;11296;42.684;23.322;2022-07-23T14:11:33;13.80;;;8.57;;
22254;SDS011;11296;42.684;23.322;2022-07-23T14:14:04;12.40;;;7.60;;
22254;SDS011;11296;42.684;23.322;2022-07-23T14:16:30;14.90;;;7.90;;
22254;SDS011;11296;42.684;23.322;2022-07-23T14:19:02;15.05;;;8.77;;
22254;SDS011;11296;42.684;23.322;2022-07-23T14:21:34;14.30;;;8.43;;
22254;SDS011;11296;42.684;23.322;2022-07-23T14:24:02;14.60;;;8.57;;
22254;SDS011;11296;42.684;23.322;2022-07-23T14:26:49;11.48;;;8.13;;
22254;SDS011;11296;42.684;23.322;2022-07-23T14:29:24;14.77;;;8.95;;
22254;SDS011;11296;42.684;23.322;2022-07-23T14:31:51;12.48;;;8.10;;
22254;SDS011;11296;42.684;23.322;2022-07-23T14:34:16;11.43;;;7.53;;
22254;SDS011;11296;42.684;23.322;2022-07-23T14:36:57;16.25;;;8.07;;
22254;SDS011;11296;42.684;23.322;2022-07-23T14:39:30;14.75;;;8.20;;
22254;SDS011;11296;42.684;23.322;2022-07-23T14:42:14;13.27;;;8.27;;
22254;SDS011;11296;42.684;23.322;2022-07-23T14:44:45;14.65;;;8.20;;
22254;SDS011;11296;42.684;23.322;2022-07-23T14:47:15;14.05;;;8.65;;
22254;SDS011;11296;42.684;23.322;2022-07-23T14:49:44;12.63;;;8.50;;
22254;SDS011;11296;42.684;23.322;2022-07-23T14:52:13;14.55;;;8.48;;
22254;SDS011;11296;42.684;23.322;2022-07-23T14:54:40;12.95;;;8.10;;
22254;SDS011;11296;42.684;23.322;2022-07-23T14:57:09;15.25;;;8.35;;
22254;SDS011;11296;42.684;23.322;2022-07-23T14:59:35;12.05;;;7.95;;
22254;SDS011;11296;42.684;23.322;2022-07-23T15:10:17;15.70;;;7.90;;
22254;SDS011;11296;42.684;23.322;2022-07-23T15:12:50;12.88;;;7.32;;
22254;SDS011;11296;42.684;23.322;2022-07-23T15:15:20;12.60;;;8.05;;
22254;SDS011;11296;42.684;23.322;2022-07-23T15:17:56;13.95;;;8.82;;
22254;SDS011;11296;42.684;23.322;2022-07-23T15:20:36;15.35;;;9.05;;
22254;SDS011;11296;42.684;23.322;2022-07-23T15:23:50;13.20;;;8.23;;
22254;SDS011;11296;42.684;23.322;2022-07-23T15:34:17;10.63;;;8.35;;
22254;SDS011;11296;42.684;23.322;2022-07-23T15:37:19;15.32;;;8.77;;
22254;SDS011;11296;42.684;23.322;2022-07-23T15:39:48;10.48;;;9.10;;
22254;SDS011;11296;42.684;23.322;2022-07-23T15:45:51;10.95;;;9.02;;
22254;SDS011;11296;42.684;23.322;2022-07-23T15:48:48;14.10;;;9.43;;